Latest Coastal Weather Observations for Lake Macquarie - Cooranbong

IDN60701

Issued at 10:05 pm EST Monday 22 September 2014 (issued every 10 minutes, with the page automatically refreshed every 10 minutes)

About coastal observations | Map of coastal stations | Coastal observations for NSW | Marine services | Other Formats
Station Details ID: 061412 Name: LAKE MACQUARIE AWS Lat: -33.09 Lon: 151.46 Height: 6.0 m
Data from the previous 72 hours. | See also: Recent months at Lake Macquarie - Cooranbong
Date/Time
EST
Temp

°C
Wind Pressure Rain
since 9am
mm
Weather Cloud Vis
km
Sea
Height
m
Swell
Dir
 
Speed
knots
Gust
knots
hPa Trend Height
m
Period
s
Dir
22/10:00pm 9.3 ENE 0 0 1030.6 - 0.0 - - - - - - -
22/09:30pm 9.8 CALM 0 0 1030.7 - 0.0 - - - - - - -
22/09:00pm 10.2 CALM 0 0 1030.7 - 0.0 - - - - - - -
22/08:30pm 10.5 CALM 0 0 1030.5 - 0.0 - - - - - - -
22/08:00pm 11.3 CALM 0 0 1030.3 - 0.0 - - - - - - -
22/07:30pm 11.9 CALM 0 0 1030.2 - 0.0 - - - - - - -
22/07:00pm 12.7 CALM 0 0 1030.2 - 0.0 - - - - - - -
22/06:30pm 13.8 CALM 0 0 1029.9 - 0.0 - - - - - - -
22/06:00pm 15.6 E 1 2 1029.7 - 0.0 - - - - - - -
22/05:30pm 16.7 E 4 7 1029.5 - 0.0 - - - - - - -
22/05:00pm 17.4 E 6 10 1029.2 - 0.0 - - - - - - -
22/04:30pm 18.2 E 6 10 1029.0 - 0.0 - - - - - - -
22/04:00pm 18.5 E 6 10 1028.8 - 0.0 - - - - - - -
22/03:30pm 19.2 E 4 8 1028.7 - 0.0 - - - - - - -
22/03:00pm 19.1 ESE 7 10 1028.9 - 0.0 - - - - - - -
22/02:30pm 19.6 E 5 9 1028.9 - 0.0 - - - - - - -
22/02:00pm 19.8 E 5 10 1029.0 - 0.0 - - - - - - -
22/01:30pm 20.4 E 5 9 1029.3 - 0.0 - - - - - - -
22/01:00pm 18.7 E 5 7 1029.9 - 0.0 - - - - - - -
22/12:30pm 20.1 ESE 5 10 1030.2 - 0.0 - - - - - - -
22/12:00pm 19.1 E 4 7 1030.8 - 0.0 - - - - - - -
22/11:30am 18.8 SSE 4 8 1031.2 - 0.0 - - - - - - -
22/11:00am 19.3 SE 4 7 1031.5 - 0.0 - - - - - - -
22/10:30am 17.7 SE 2 4 1031.9 - 0.0 - - - - - - -
22/10:00am 17.7 SW 2 4 1032.0 - 0.0 - - - - - - -
22/09:30am 18.1 SE 2 5 1032.2 - 0.0 - - - - - - -
22/09:00am 18.4 NNE 2 3 1032.2 - 0.0 - - - - - - -
22/08:30am 16.8 SSW 3 4 1032.3 - 0.0 - - - - - - -
22/08:00am 15.4 N 1 3 1032.1 - 0.0 - - - - - - -
22/07:30am 12.2 CALM 0 0 1031.8 - 0.0 - - - - - - -
22/07:00am 9.7 CALM 0 0 1031.6 - 0.0 - - - - - - -
22/06:30am 7.3 CALM 0 0 1031.3 - 0.0 - - - - - - -
22/06:00am 6.5 CALM 0 0 1031.0 - 0.0 - - - - - - -
22/05:30am 6.0 CALM 0 0 1030.6 - 0.0 - - - - - - -
22/05:00am 6.4 CALM 0 0 1030.2 - 0.0 - - - - - - -
22/04:30am 6.7 CALM 0 0 1030.0 - 0.0 - - - - - - -
22/04:00am 6.6 CALM 0 0 1029.6 - 0.0 - - - - - - -
22/03:30am 7.0 CALM 0 0 1029.4 - 0.0 - - - - - - -
22/03:00am 7.3 CALM 0 0 1029.6 - 0.0 - - - - - - -
22/02:30am 7.7 CALM 0 0 1029.7 - 0.0 - - - - - - -
22/02:00am 8.0 CALM 0 0 1029.9 - 0.0 - - - - - - -
22/01:30am 8.6 N 0 0 1030.0 - 0.0 - - - - - - -
22/01:00am 8.9 CALM 0 0 1030.2 - 0.0 - - - - - - -
22/12:30am 9.2 CALM 0 0 1030.5 - 0.0 - - - - - - -
22/12:00am 9.4 N 0 0 1030.5 - 0.0 - - - - - - -
 
Date/Time
EST
Temp

°C
Wind Pressure Rain
since 9am
mm
Weather Cloud Vis
km
Sea
Height
m
Swell
Dir
 
Speed
knots
Gust
knots
hPa Trend Height
m
Period
s
Dir
21/11:30pm 9.8 CALM 0 0 1030.6 - 0.0 - - - - - - -
21/11:00pm 10.1 CALM 0 0 1030.5 - 0.0 - - - - - - -
21/10:30pm 10.8 CALM 0 0 1030.6 - 0.0 - - - - - - -
21/10:00pm 11.4 CALM 0 0 1030.9 - 0.0 - - - - - - -
21/09:30pm 11.5 CALM 0 0 1030.8 - 0.0 - - - - - - -
21/09:00pm 11.6 CALM 0 0 1030.8 - 0.0 - - - - - - -
21/08:30pm 11.4 CALM 0 0 1030.6 - 0.0 - - - - - - -
21/08:00pm 11.7 CALM 0 0 1030.4 - 0.0 - - - - - - -
21/07:30pm 12.0 CALM 0 0 1030.1 - 0.0 - - - - - - -
21/07:00pm 12.4 CALM 0 0 1029.6 - 0.0 - - - - - - -
21/06:30pm 13.0 CALM 0 0 1029.1 - 0.0 - - - - - - -
21/06:00pm 13.9 CALM 0 0 1028.7 - 0.0 - - - - - - -
21/05:30pm 15.7 SE 1 2 1028.2 - 0.0 - - - - - - -
21/05:00pm 16.3 ESE 3 7 1027.7 - 0.0 - - - - - - -
21/04:30pm 16.9 ESE 5 8 1027.4 - 0.0 - - - - - - -
21/04:00pm 18.0 ESE 4 8 1027.1 - 0.0 - - - - - - -
21/03:30pm 18.1 ESE 6 10 1027.2 - 0.0 - - - - - - -
21/03:00pm 18.3 SE 5 9 1027.4 - 0.0 - - - - - - -
21/02:30pm 19.2 SE 5 11 1027.7 - 0.0 - - - - - - -
21/02:00pm 19.1 ESE 6 10 1028.0 - 0.0 - - - - - - -
21/01:30pm 18.8 ESE 6 12 1028.5 - 0.0 - - - - - - -
21/01:00pm 18.1 SE 5 9 1028.9 - 0.0 - - - - - - -
21/12:30pm 18.1 SE 6 10 1029.3 - 0.0 - - - - - - -
21/12:00pm 17.4 SE 4 8 1029.9 - 0.0 - - - - - - -
21/11:30am 16.9 S 5 10 1030.2 - 0.0 - - - - - - -
21/11:00am 17.7 ESE 7 11 1030.2 - 0.0 - - - - - - -
21/10:30am 17.6 SE 5 10 1030.3 - 0.0 - - - - - - -
21/10:00am 16.5 S 4 9 1030.4 - 0.0 - - - - - - -
21/09:30am 16.5 S 2 5 1030.5 - 0.0 - - - - - - -
21/09:00am 14.1 SW 3 7 1030.5 - 0.2 Recent precip. - - - - - -
21/08:30am 14.9 SSE 4 7 1030.2 - 0.0 - - - - - - -
21/08:00am 15.2 S 2 6 1029.6 - 0.0 - - - - - - -
21/07:30am 12.9 W 1 5 1029.5 - 0.0 - - - - - - -
21/07:00am 11.6 CALM 0 0 1029.3 - 0.0 - - - - - - -
21/06:30am 10.7 CALM 0 2 1028.7 - 0.0 - - - - - - -
21/06:00am 10.2 CALM 0 2 1028.3 - 0.0 - - - - - - -
21/05:30am 10.0 CALM 0 0 1028.1 - 0.0 - - - - - - -
21/05:00am 9.2 CALM 0 0 1027.8 - 0.0 - - - - - - -
21/04:30am 9.5 CALM 0 0 1027.5 - 0.0 - - - - - - -
21/04:00am 9.3 CALM 0 0 1027.2 - 0.0 - - - - - - -
21/03:30am 9.9 CALM 0 1 1027.3 - 0.0 - - - - - - -
21/03:00am 9.8 W 1 3 1027.4 - 0.0 - - - - - - -
21/02:30am 8.8 CALM 0 0 1027.7 - 0.0 - - - - - - -
21/02:00am 8.1 CALM 0 0 1027.6 - 0.0 - - - - - - -
21/01:30am 8.2 CALM 0 0 1027.7 - 0.0 - - - - - - -
21/01:00am 9.1 CALM 0 2 1028.0 - 0.0 - - - - - - -
21/12:30am 8.0 CALM 0 0 1028.2 - 0.0 - - - - - - -
21/12:00am 7.8 CALM 0 0 1028.0 - 0.0 - - - - - - -
 
Date/Time
EST
Temp

°C
Wind Pressure Rain
since 9am
mm
Weather Cloud Vis
km
Sea
Height
m
Swell
Dir
 
Speed
knots
Gust
knots
hPa Trend Height
m
Period
s
Dir
20/11:30pm 8.0 CALM 0 0 1028.2 - 0.0 - - - - - - -
20/11:00pm 8.3 CALM 0 0 1028.1 - 0.0 - - - - - - -
20/10:30pm 8.4 CALM 0 0 1028.0 - 0.0 - - - - - - -
20/10:00pm 8.5 CALM 0 0 1028.0 - 0.0 - - - - - - -
20/09:30pm 8.4 CALM 0 0 1027.9 - 0.0 - - - - - - -
20/09:00pm 8.9 CALM 0 0 1027.8 - 0.0 - - - - - - -
20/08:30pm 9.2 CALM 0 0 1027.6 - 0.0 - - - - - - -
20/08:00pm 9.8 CALM 0 0 1027.3 - 0.0 - - - - - - -
20/07:30pm 10.5 CALM 0 0 1026.8 - 0.0 - - - - - - -
20/07:00pm 11.2 CALM 0 0 1026.5 - 0.0 - - - - - - -
20/06:30pm 12.4 CALM 0 0 1026.0 - 0.0 - - - - - - -
20/06:00pm 14.3 S 1 5 1025.5 - 0.0 - - - - - - -
20/05:30pm 15.3 S 3 6 1025.0 - 0.0 - - - - - - -
20/05:00pm 16.0 SSE 4 11 1024.4 - 0.0 - - - - - - -
20/04:30pm 16.6 SE 5 8 1024.1 - 0.0 - - - - - - -
20/04:00pm 16.9 SE 5 11 1023.9 - 0.0 - - - - - - -
20/03:30pm 17.1 SSE 6 12 1023.6 - 0.0 - - - - - - -
20/03:00pm 17.1 SE 7 12 1023.5 - 0.0 - - - - - - -
20/02:30pm 18.1 SSE 6 13 1023.4 - 0.0 - - - - - - -
20/02:00pm 18.4 SE 6 11 1023.2 - 0.0 - - - - - - -
20/01:30pm 18.7 SSE 6 11 1023.4 - 0.0 - - - - - - -
20/01:00pm 19.0 SSE 6 10 1023.4 - 0.0 - - - - - - -
20/12:30pm 19.4 S 5 10 1023.5 - 0.0 - - - - - - -
20/12:00pm 19.0 SSE 6 12 1023.6 - 0.0 - - - - - - -
20/11:30am 18.1 S 3 7 1024.0 - 0.0 - - - - - - -
20/11:00am 18.4 S 3 6 1024.2 - 0.0 - - - - - - -
20/10:30am 18.5 SSW 2 6 1024.2 - 0.0 - - - - - - -
20/10:00am 18.0 SSW 3 5 1024.3 - 0.0 - - - - - - -
20/09:30am 17.7 NE 1 3 1024.4 - 0.0 - - - - - - -
20/09:00am 16.9 NE 1 2 1024.4 - 0.0 - - - - - - -
20/08:30am 14.9 CALM 0 0 1024.2 - 0.0 - - - - - - -
20/08:00am 12.1 CALM 0 0 1024.0 - 0.0 - - - - - - -
20/07:30am 9.3 CALM 0 0 1023.8 - 0.0 - - - - - - -
20/07:00am 5.9 CALM 0 0 1023.4 - 0.0 - - - - - - -
20/06:30am 3.9 CALM 0 0 1022.9 - 0.0 - - - - - - -
20/06:00am 3.6 CALM 0 0 1022.4 - 0.0 - - - - - - -
20/05:30am 3.7 CALM 0 0 1021.9 - 0.0 - - - - - - -
20/05:00am 3.5 CALM 0 0 1021.4 - 0.0 - - - - - - -
20/04:30am 4.1 CALM 0 0 1021.2 - 0.0 - - - - - - -
20/04:00am 4.1 NE 2 4 1021.0 - 0.0 - - - - - - -
20/03:30am 4.4 CALM 0 0 1021.0 - 0.0 - - - - - - -
20/03:00am 4.4 CALM 0 0 1021.1 - 0.0 - - - - - - -
20/02:30am 4.7 CALM 0 0 1021.2 - 0.0 - - - - - - -
20/02:00am 4.8 CALM 0 0 1021.3 - 0.0 - - - - - - -
20/01:30am 5.1 CALM 0 0 1021.6 - 0.0 - - - - - - -
20/01:00am 5.7 CALM 0 0 1021.8 - 0.0 - - - - - - -
20/12:30am 5.5 CALM 0 0 1021.9 - 0.0 - - - - - - -
20/12:00am 6.2 CALM 0 0 1021.9 - 0.0 - - - - - - -
 
Date/Time
EST
Temp

°C
Wind Pressure Rain
since 9am
mm
Weather Cloud Vis
km
Sea
Height
m
Swell
Dir
 
Speed
knots
Gust
knots
hPa Trend Height
m
Period
s
Dir
19/11:30pm 6.5 CALM 0 0 1022.1 - 0.0 - - - - - - -
19/11:00pm 6.8 CALM 0 0 1022.1 - 0.0 - - - - - - -
19/10:30pm 7.0 CALM 0 0 1022.2 - 0.0 - - - - - - -

Other Formats:

Comma delimited format used in spreadsheet applications
http://www.bom.gov.au/fwo/IDN60701/IDN60701.95767.axf

JavaScript Object Notation format (JSON) in row-major order
http://www.bom.gov.au/fwo/IDN60701/IDN60701.95767.json